Terminal Aerodrome Forecast
Issued by NWS

Home | Current Version | Previous Version | Text Only | Print | Product List | Glossary On
Versions: 1 2 3 4 5 6 7 8 9 10 11 12 13 14 15 16 17 18 19
000
FTUS45 KABQ 291400 AAA
TAFSAF
TAF AMD
KSAF 291418Z 2914/3012 15008KT P6SM SCT040
      TEMPO 2914/2916 BKN015
     FM292000 23010KT P6SM VCTS SCT050CB BKN110
     FM292300 28010KT P6SM SCT060 BKN120
     FM300100 33008KT P6SM SCT120
     FM300500 36006KT P6SM SCT150=

USA.gov is the U.S. government's official web portal to all federal, state and local government web resources and services.